« Back
NWS Peachtree City, Ga » Text Product » MCN Terminal Aerodrome Forecast


Printer-friendly Version
Current Version              Previous Versions:   1  2  3  4  5  6  7  8  9  

Terminal Aerodrome Forecast

245
FTUS42 KFFC 280314 AAC
TAFMCN
TAF AMD
KMCN 280314Z 2803/2824 32010G18KT P6SM BKN090
     FM280400 32009KT P6SM FEW080
     FM280600 32006KT P6SM SKC
     FM281500 32009KT P6SM FEW250
     FM282300 30005KT P6SM SCT250=

USA.gov is the U.S. government's official web portal to all federal, state and local government web resources and services.